sensor_id;sensor_type;location;lat;lon;timestamp;P1;durP1;ratioP1;P2;durP2;ratioP2
50906;SDS011;36882;27.680;85.304;2022-09-09T00:05:04;51.97;;;29.50;;
50906;SDS011;36882;27.680;85.304;2022-09-09T00:07:47;49.55;;;32.63;;
50906;SDS011;36882;27.680;85.304;2022-09-09T00:10:32;57.20;;;31.02;;
50906;SDS011;36882;27.680;85.304;2022-09-09T00:16:04;48.38;;;29.77;;
50906;SDS011;36882;27.680;85.304;2022-09-09T00:21:53;54.88;;;29.40;;
50906;SDS011;36882;27.680;85.304;2022-09-09T00:24:40;60.50;;;27.52;;
50906;SDS011;36882;27.680;85.304;2022-09-09T00:27:19;57.20;;;28.95;;
50906;SDS011;36882;27.680;85.304;2022-09-09T00:30:13;45.90;;;29.20;;
50906;SDS011;36882;27.680;85.304;2022-09-09T00:32:54;51.08;;;29.40;;
50906;SDS011;36882;27.680;85.304;2022-09-09T00:35:33;61.67;;;31.02;;
50906;SDS011;36882;27.680;85.304;2022-09-09T00:44:20;52.17;;;28.85;;
50906;SDS011;36882;27.680;85.304;2022-09-09T00:50:17;50.00;;;32.38;;
50906;SDS011;36882;27.680;85.304;2022-09-09T00:53:08;44.08;;;27.08;;
50906;SDS011;36882;27.680;85.304;2022-09-09T00:56:08;53.25;;;30.50;;
50906;SDS011;36882;27.680;85.304;2022-09-09T00:58:48;52.85;;;29.63;;
50906;SDS011;36882;27.680;85.304;2022-09-09T01:01:31;49.28;;;29.45;;
50906;SDS011;36882;27.680;85.304;2022-09-09T01:04:02;47.53;;;30.77;;
50906;SDS011;36882;27.680;85.304;2022-09-09T01:06:41;48.00;;;31.50;;
50906;SDS011;36882;27.680;85.304;2022-09-09T01:14:48;48.80;;;29.30;;
50906;SDS011;36882;27.680;85.304;2022-09-09T01:17:25;51.42;;;32.58;;
50906;SDS011;36882;27.680;85.304;2022-09-09T01:20:04;54.47;;;33.00;;
50906;SDS011;36882;27.680;85.304;2022-09-09T01:22:52;56.58;;;30.95;;
50906;SDS011;36882;27.680;85.304;2022-09-09T01:28:45;60.43;;;32.03;;
50906;SDS011;36882;27.680;85.304;2022-09-09T01:34:11;58.28;;;32.13;;
50906;SDS011;36882;27.680;85.304;2022-09-09T01:39:42;55.63;;;31.05;;
50906;SDS011;36882;27.680;85.304;2022-09-09T01:42:14;51.67;;;33.95;;
50906;SDS011;36882;27.680;85.304;2022-09-09T01:44:47;48.80;;;30.98;;
50906;SDS011;36882;27.680;85.304;2022-09-09T01:47:17;50.55;;;31.55;;
50906;SDS011;36882;27.680;85.304;2022-09-09T01:49:48;56.08;;;33.15;;
50906;SDS011;36882;27.680;85.304;2022-09-09T01:52:18;49.28;;;30.98;;
50906;SDS011;36882;27.680;85.304;2022-09-09T01:54:49;47.40;;;31.17;;
50906;SDS011;36882;27.680;85.304;2022-09-09T01:57:21;55.92;;;34.35;;
50906;SDS011;36882;27.680;85.304;2022-09-09T02:00:00;47.78;;;32.17;;
50906;SDS011;36882;27.680;85.304;2022-09-09T02:02:53;42.97;;;30.65;;
50906;SDS011;36882;27.680;85.304;2022-09-09T02:05:48;44.03;;;30.48;;
50906;SDS011;36882;27.680;85.304;2022-09-09T02:08:42;51.13;;;32.45;;
50906;SDS011;36882;27.680;85.304;2022-09-09T02:11:17;46.10;;;31.33;;
50906;SDS011;36882;27.680;85.304;2022-09-09T02:13:51;45.38;;;29.95;;
50906;SDS011;36882;27.680;85.304;2022-09-09T02:16:28;45.53;;;28.88;;
50906;SDS011;36882;27.680;85.304;2022-09-09T02:19:14;46.72;;;30.23;;
50906;SDS011;36882;27.680;85.304;2022-09-09T02:21:55;44.10;;;26.67;;
50906;SDS011;36882;27.680;85.304;2022-09-09T02:24:30;54.70;;;30.85;;
50906;SDS011;36882;27.680;85.304;2022-09-09T02:27:05;44.15;;;28.83;;
50906;SDS011;36882;27.680;85.304;2022-09-09T02:29:41;51.90;;;29.00;;
50906;SDS011;36882;27.680;85.304;2022-09-09T02:32:15;39.42;;;29.70;;
50906;SDS011;36882;27.680;85.304;2022-09-09T02:34:53;53.42;;;31.02;;
50906;SDS011;36882;27.680;85.304;2022-09-09T02:40:04;42.50;;;29.17;;
50906;SDS011;36882;27.680;85.304;2022-09-09T02:42:41;51.22;;;30.17;;
50906;SDS011;36882;27.680;85.304;2022-09-09T02:45:14;41.97;;;30.23;;
50906;SDS011;36882;27.680;85.304;2022-09-09T02:50:58;43.97;;;29.10;;
50906;SDS011;36882;27.680;85.304;2022-09-09T02:53:57;61.47;;;32.95;;
50906;SDS011;36882;27.680;85.304;2022-09-09T02:56:35;50.88;;;34.22;;
50906;SDS011;36882;27.680;85.304;2022-09-09T02:59:13;53.47;;;33.70;;
50906;SDS011;36882;27.680;85.304;2022-09-09T03:01:43;52.03;;;34.40;;
50906;SDS011;36882;27.680;85.304;2022-09-09T03:04:13;47.15;;;31.55;;
50906;SDS011;36882;27.680;85.304;2022-09-09T03:06:44;47.50;;;33.78;;
50906;SDS011;36882;27.680;85.304;2022-09-09T03:09:14;53.75;;;36.38;;
50906;SDS011;36882;27.680;85.304;2022-09-09T03:11:44;53.47;;;34.63;;
50906;SDS011;36882;27.680;85.304;2022-09-09T03:14:15;55.13;;;34.05;;
50906;SDS011;36882;27.680;85.304;2022-09-09T03:16:45;53.67;;;33.42;;
50906;SDS011;36882;27.680;85.304;2022-09-09T03:19:17;56.83;;;33.58;;
50906;SDS011;36882;27.680;85.304;2022-09-09T03:21:51;54.83;;;32.67;;
50906;SDS011;36882;27.680;85.304;2022-09-09T03:24:22;45.08;;;30.63;;
50906;SDS011;36882;27.680;85.304;2022-09-09T03:26:52;44.85;;;31.25;;
50906;SDS011;36882;27.680;85.304;2022-09-09T03:29:24;49.72;;;29.92;;
50906;SDS011;36882;27.680;85.304;2022-09-09T03:31:54;56.88;;;29.85;;
50906;SDS011;36882;27.680;85.304;2022-09-09T03:34:25;53.40;;;28.50;;
50906;SDS011;36882;27.680;85.304;2022-09-09T03:36:55;43.90;;;28.10;;
50906;SDS011;36882;27.680;85.304;2022-09-09T03:39:26;40.17;;;27.33;;
50906;SDS011;36882;27.680;85.304;2022-09-09T03:41:57;40.72;;;30.17;;
50906;SDS011;36882;27.680;85.304;2022-09-09T03:44:28;37.53;;;25.05;;
50906;SDS011;36882;27.680;85.304;2022-09-09T03:46:59;60.95;;;40.15;;
50906;SDS011;36882;27.680;85.304;2022-09-09T03:49:29;44.05;;;27.95;;
50906;SDS011;36882;27.680;85.304;2022-09-09T03:52:00;38.38;;;27.25;;
50906;SDS011;36882;27.680;85.304;2022-09-09T03:54:30;34.30;;;24.48;;
50906;SDS011;36882;27.680;85.304;2022-09-09T03:57:01;32.65;;;22.42;;
50906;SDS011;36882;27.680;85.304;2022-09-09T03:59:32;33.60;;;22.27;;
50906;SDS011;36882;27.680;85.304;2022-09-09T04:02:03;34.50;;;20.40;;
50906;SDS011;36882;27.680;85.304;2022-09-09T04:04:34;26.85;;;20.02;;
50906;SDS011;36882;27.680;85.304;2022-09-09T04:07:05;132.93;;;100.55;;
50906;SDS011;36882;27.680;85.304;2022-09-09T04:09:35;61.00;;;38.28;;
50906;SDS011;36882;27.680;85.304;2022-09-09T04:12:06;57.55;;;38.70;;
50906;SDS011;36882;27.680;85.304;2022-09-09T04:14:36;78.60;;;44.75;;
50906;SDS011;36882;27.680;85.304;2022-09-09T04:17:06;62.53;;;39.10;;
50906;SDS011;36882;27.680;85.304;2022-09-09T04:19:37;50.00;;;35.50;;
50906;SDS011;36882;27.680;85.304;2022-09-09T04:22:07;175.88;;;124.25;;
50906;SDS011;36882;27.680;85.304;2022-09-09T04:24:38;540.20;;;368.98;;
50906;SDS011;36882;27.680;85.304;2022-09-09T04:27:14;834.33;;;437.63;;
50906;SDS011;36882;27.680;85.304;2022-09-09T04:29:44;54.83;;;43.35;;
50906;SDS011;36882;27.680;85.304;2022-09-09T04:32:15;49.38;;;33.10;;
50906;SDS011;36882;27.680;85.304;2022-09-09T04:34:46;35.83;;;26.08;;
50906;SDS011;36882;27.680;85.304;2022-09-09T04:37:16;39.30;;;24.90;;
50906;SDS011;36882;27.680;85.304;2022-09-09T04:39:47;47.17;;;25.00;;
50906;SDS011;36882;27.680;85.304;2022-09-09T04:42:17;41.50;;;24.00;;
50906;SDS011;36882;27.680;85.304;2022-09-09T04:44:48;39.15;;;24.63;;
50906;SDS011;36882;27.680;85.304;2022-09-09T04:47:18;40.10;;;27.58;;
50906;SDS011;36882;27.680;85.304;2022-09-09T04:52:39;63.55;;;30.63;;
50906;SDS011;36882;27.680;85.304;2022-09-09T04:55:10;42.45;;;29.77;;
50906;SDS011;36882;27.680;85.304;2022-09-09T04:57:41;39.78;;;29.75;;
50906;SDS011;36882;27.680;85.304;2022-09-09T05:00:14;56.88;;;32.85;;
50906;SDS011;36882;27.680;85.304;2022-09-09T05:02:49;56.45;;;36.38;;
50906;SDS011;36882;27.680;85.304;2022-09-09T05:05:20;51.65;;;34.55;;
50906;SDS011;36882;27.680;85.304;2022-09-09T05:07:51;43.95;;;28.63;;
50906;SDS011;36882;27.680;85.304;2022-09-09T05:10:22;35.20;;;22.58;;
50906;SDS011;36882;27.680;85.304;2022-09-09T05:12:52;39.80;;;23.42;;
50906;SDS011;36882;27.680;85.304;2022-09-09T05:15:23;42.92;;;22.13;;
50906;SDS011;36882;27.680;85.304;2022-09-09T05:18:01;34.17;;;20.05;;
50906;SDS011;36882;27.680;85.304;2022-09-09T05:20:32;32.35;;;17.38;;
50906;SDS011;36882;27.680;85.304;2022-09-09T05:23:02;38.38;;;21.58;;
50906;SDS011;36882;27.680;85.304;2022-09-09T05:25:33;33.92;;;22.40;;
50906;SDS011;36882;27.680;85.304;2022-09-09T05:28:03;33.20;;;21.92;;
50906;SDS011;36882;27.680;85.304;2022-09-09T05:30:36;28.30;;;19.67;;
50906;SDS011;36882;27.680;85.304;2022-09-09T05:33:07;26.15;;;17.75;;
50906;SDS011;36882;27.680;85.304;2022-09-09T05:35:38;32.25;;;19.48;;
50906;SDS011;36882;27.680;85.304;2022-09-09T05:38:08;36.38;;;19.45;;
50906;SDS011;36882;27.680;85.304;2022-09-09T05:40:39;41.05;;;20.95;;
50906;SDS011;36882;27.680;85.304;2022-09-09T05:43:18;39.92;;;21.05;;
50906;SDS011;36882;27.680;85.304;2022-09-09T05:45:58;39.72;;;21.58;;
50906;SDS011;36882;27.680;85.304;2022-09-09T05:48:34;33.00;;;17.33;;
50906;SDS011;36882;27.680;85.304;2022-09-09T05:51:06;28.30;;;17.60;;
50906;SDS011;36882;27.680;85.304;2022-09-09T05:53:41;22.98;;;13.88;;
50906;SDS011;36882;27.680;85.304;2022-09-09T05:56:14;31.10;;;16.67;;
50906;SDS011;36882;27.680;85.304;2022-09-09T05:58:47;33.35;;;16.98;;
50906;SDS011;36882;27.680;85.304;2022-09-09T06:01:22;33.15;;;18.25;;
50906;SDS011;36882;27.680;85.304;2022-09-09T06:03:56;26.92;;;17.13;;
50906;SDS011;36882;27.680;85.304;2022-09-09T06:06:30;30.10;;;18.02;;
50906;SDS011;36882;27.680;85.304;2022-09-09T06:09:06;21.45;;;10.63;;
50906;SDS011;36882;27.680;85.304;2022-09-09T06:11:39;9.63;;;5.85;;
50906;SDS011;36882;27.680;85.304;2022-09-09T06:14:09;8.48;;;4.72;;
50906;SDS011;36882;27.680;85.304;2022-09-09T06:16:40;10.32;;;4.60;;
50906;SDS011;36882;27.680;85.304;2022-09-09T06:19:12;5.20;;;2.83;;
50906;SDS011;36882;27.680;85.304;2022-09-09T06:21:43;3.38;;;2.05;;
50906;SDS011;36882;27.680;85.304;2022-09-09T06:24:13;5.40;;;2.72;;
50906;SDS011;36882;27.680;85.304;2022-09-09T06:26:46;8.73;;;2.88;;
50906;SDS011;36882;27.680;85.304;2022-09-09T06:29:16;7.32;;;3.05;;
50906;SDS011;36882;27.680;85.304;2022-09-09T06:31:47;10.65;;;3.90;;
50906;SDS011;36882;27.680;85.304;2022-09-09T06:34:17;18.70;;;4.05;;
50906;SDS011;36882;27.680;85.304;2022-09-09T06:36:48;9.60;;;3.30;;
50906;SDS011;36882;27.680;85.304;2022-09-09T06:39:18;11.35;;;2.78;;
50906;SDS011;36882;27.680;85.304;2022-09-09T06:41:49;6.57;;;3.13;;
50906;SDS011;36882;27.680;85.304;2022-09-09T06:44:21;5.43;;;2.97;;
50906;SDS011;36882;27.680;85.304;2022-09-09T06:46:52;8.07;;;3.00;;
50906;SDS011;36882;27.680;85.304;2022-09-09T06:49:23;10.05;;;3.97;;
50906;SDS011;36882;27.680;85.304;2022-09-09T06:51:53;7.28;;;4.00;;
50906;SDS011;36882;27.680;85.304;2022-09-09T06:54:24;9.05;;;3.75;;
50906;SDS011;36882;27.680;85.304;2022-09-09T06:56:54;5.72;;;4.18;;
50906;SDS011;36882;27.680;85.304;2022-09-09T06:59:30;11.23;;;4.03;;
50906;SDS011;36882;27.680;85.304;2022-09-09T07:02:00;6.90;;;4.38;;
50906;SDS011;36882;27.680;85.304;2022-09-09T07:04:31;7.05;;;4.00;;
50906;SDS011;36882;27.680;85.304;2022-09-09T07:07:02;9.23;;;3.58;;
50906;SDS011;36882;27.680;85.304;2022-09-09T07:09:33;6.57;;;4.10;;
50906;SDS011;36882;27.680;85.304;2022-09-09T07:12:04;6.78;;;4.28;;
50906;SDS011;36882;27.680;85.304;2022-09-09T07:14:35;11.45;;;6.60;;
50906;SDS011;36882;27.680;85.304;2022-09-09T07:17:06;9.52;;;6.70;;
50906;SDS011;36882;27.680;85.304;2022-09-09T07:19:36;7.50;;;5.00;;
50906;SDS011;36882;27.680;85.304;2022-09-09T07:22:07;13.98;;;5.05;;
50906;SDS011;36882;27.680;85.304;2022-09-09T07:24:39;6.40;;;4.57;;
50906;SDS011;36882;27.680;85.304;2022-09-09T07:27:10;7.72;;;4.07;;
50906;SDS011;36882;27.680;85.304;2022-09-09T07:29:40;11.55;;;4.45;;
50906;SDS011;36882;27.680;85.304;2022-09-09T07:32:10;18.65;;;5.97;;
50906;SDS011;36882;27.680;85.304;2022-09-09T07:34:47;10.25;;;4.13;;
50906;SDS011;36882;27.680;85.304;2022-09-09T07:37:19;6.38;;;4.75;;
50906;SDS011;36882;27.680;85.304;2022-09-09T07:39:50;8.02;;;4.68;;
50906;SDS011;36882;27.680;85.304;2022-09-09T07:42:21;11.95;;;5.57;;
50906;SDS011;36882;27.680;85.304;2022-09-09T07:44:51;10.52;;;5.70;;
50906;SDS011;36882;27.680;85.304;2022-09-09T07:47:23;8.05;;;4.65;;
50906;SDS011;36882;27.680;85.304;2022-09-09T07:49:54;10.30;;;5.88;;
50906;SDS011;36882;27.680;85.304;2022-09-09T07:52:24;7.15;;;5.30;;
50906;SDS011;36882;27.680;85.304;2022-09-09T07:54:56;9.55;;;5.45;;
50906;SDS011;36882;27.680;85.304;2022-09-09T07:57:29;8.27;;;4.55;;
50906;SDS011;36882;27.680;85.304;2022-09-09T07:59:59;10.95;;;6.15;;
50906;SDS011;36882;27.680;85.304;2022-09-09T08:02:31;5.22;;;3.72;;
50906;SDS011;36882;27.680;85.304;2022-09-09T08:05:02;13.70;;;5.43;;
50906;SDS011;36882;27.680;85.304;2022-09-09T08:07:34;15.15;;;5.25;;
50906;SDS011;36882;27.680;85.304;2022-09-09T08:10:04;7.93;;;3.70;;
50906;SDS011;36882;27.680;85.304;2022-09-09T08:12:35;8.50;;;4.40;;
50906;SDS011;36882;27.680;85.304;2022-09-09T08:15:21;14.95;;;4.90;;
50906;SDS011;36882;27.680;85.304;2022-09-09T08:17:55;17.80;;;5.30;;
50906;SDS011;36882;27.680;85.304;2022-09-09T08:20:29;6.18;;;3.30;;
50906;SDS011;36882;27.680;85.304;2022-09-09T08:22:59;9.32;;;2.75;;
50906;SDS011;36882;27.680;85.304;2022-09-09T08:25:30;6.10;;;3.63;;
50906;SDS011;36882;27.680;85.304;2022-09-09T08:28:00;7.43;;;3.80;;
50906;SDS011;36882;27.680;85.304;2022-09-09T08:30:32;8.05;;;3.67;;
50906;SDS011;36882;27.680;85.304;2022-09-09T08:33:02;5.40;;;3.65;;
50906;SDS011;36882;27.680;85.304;2022-09-09T08:35:33;8.13;;;3.88;;
50906;SDS011;36882;27.680;85.304;2022-09-09T08:38:04;10.60;;;3.05;;
50906;SDS011;36882;27.680;85.304;2022-09-09T08:40:37;6.28;;;3.28;;
50906;SDS011;36882;27.680;85.304;2022-09-09T08:43:18;7.47;;;2.10;;
50906;SDS011;36882;27.680;85.304;2022-09-09T08:45:55;5.85;;;3.17;;
50906;SDS011;36882;27.680;85.304;2022-09-09T08:48:47;9.77;;;5.03;;
50906;SDS011;36882;27.680;85.304;2022-09-09T08:51:27;11.75;;;4.30;;
50906;SDS011;36882;27.680;85.304;2022-09-09T08:54:00;5.00;;;4.00;;
50906;SDS011;36882;27.680;85.304;2022-09-09T08:56:33;7.35;;;4.78;;
50906;SDS011;36882;27.680;85.304;2022-09-09T08:59:03;9.52;;;4.45;;
50906;SDS011;36882;27.680;85.304;2022-09-09T09:01:50;11.15;;;5.43;;
50906;SDS011;36882;27.680;85.304;2022-09-09T09:04:46;11.65;;;5.88;;
50906;SDS011;36882;27.680;85.304;2022-09-09T09:10:33;16.90;;;5.53;;
50906;SDS011;36882;27.680;85.304;2022-09-09T09:16:23;11.40;;;6.20;;
50906;SDS011;36882;27.680;85.304;2022-09-09T09:19:01;9.90;;;6.32;;
50906;SDS011;36882;27.680;85.304;2022-09-09T09:21:34;9.10;;;6.95;;
50906;SDS011;36882;27.680;85.304;2022-09-09T09:24:19;15.10;;;7.00;;
50906;SDS011;36882;27.680;85.304;2022-09-09T09:26:54;8.93;;;6.15;;
50906;SDS011;36882;27.680;85.304;2022-09-09T09:29:25;9.77;;;6.82;;
50906;SDS011;36882;27.680;85.304;2022-09-09T09:31:56;11.35;;;6.50;;
50906;SDS011;36882;27.680;85.304;2022-09-09T09:34:31;10.80;;;6.55;;
50906;SDS011;36882;27.680;85.304;2022-09-09T09:37:01;8.65;;;6.40;;
50906;SDS011;36882;27.680;85.304;2022-09-09T09:39:40;11.75;;;6.65;;
50906;SDS011;36882;27.680;85.304;2022-09-09T09:42:31;11.00;;;7.00;;
50906;SDS011;36882;27.680;85.304;2022-09-09T09:45:35;8.63;;;6.30;;
50906;SDS011;36882;27.680;85.304;2022-09-09T09:47:59;16.10;;;8.15;;
50906;SDS011;36882;27.680;85.304;2022-09-09T09:50:33;13.55;;;6.70;;
50906;SDS011;36882;27.680;85.304;2022-09-09T09:53:05;8.85;;;6.65;;
50906;SDS011;36882;27.680;85.304;2022-09-09T09:55:50;12.50;;;6.85;;
50906;SDS011;36882;27.680;85.304;2022-09-09T10:00:58;11.15;;;6.20;;
50906;SDS011;36882;27.680;85.304;2022-09-09T10:03:51;15.10;;;6.60;;
50906;SDS011;36882;27.680;85.304;2022-09-09T10:09:24;9.05;;;5.85;;
50906;SDS011;36882;27.680;85.304;2022-09-09T10:12:06;5.63;;;4.32;;
50906;SDS011;36882;27.680;85.304;2022-09-09T10:22:47;8.60;;;4.07;;
50906;SDS011;36882;27.680;85.304;2022-09-09T10:25:31;6.93;;;3.90;;
50906;SDS011;36882;27.680;85.304;2022-09-09T10:31:37;5.95;;;4.00;;
50906;SDS011;36882;27.680;85.304;2022-09-09T10:40:02;8.68;;;4.45;;
50906;SDS011;36882;27.680;85.304;2022-09-09T10:52:07;5.28;;;2.75;;
50906;SDS011;36882;27.680;85.304;2022-09-09T10:55:00;7.10;;;3.60;;
50906;SDS011;36882;27.680;85.304;2022-09-09T10:57:44;8.95;;;2.63;;
50906;SDS011;36882;27.680;85.304;2022-09-09T11:00:21;5.40;;;2.38;;
50906;SDS011;36882;27.680;85.304;2022-09-09T11:02:56;3.50;;;2.15;;
50906;SDS011;36882;27.680;85.304;2022-09-09T11:05:49;9.13;;;3.60;;
50906;SDS011;36882;27.680;85.304;2022-09-09T11:08:28;7.68;;;3.53;;
50906;SDS011;36882;27.680;85.304;2022-09-09T11:11:04;5.22;;;3.85;;
50906;SDS011;36882;27.680;85.304;2022-09-09T11:13:45;6.07;;;3.35;;
50906;SDS011;36882;27.680;85.304;2022-09-09T11:16:33;5.07;;;3.22;;
50906;SDS011;36882;27.680;85.304;2022-09-09T11:19:26;5.53;;;3.97;;
50906;SDS011;36882;27.680;85.304;2022-09-09T11:22:37;5.13;;;3.67;;
50906;SDS011;36882;27.680;85.304;2022-09-09T11:25:05;5.45;;;3.38;;
50906;SDS011;36882;27.680;85.304;2022-09-09T11:27:53;10.93;;;4.47;;
50906;SDS011;36882;27.680;85.304;2022-09-09T11:39:47;7.53;;;4.13;;
50906;SDS011;36882;27.680;85.304;2022-09-09T11:42:29;9.25;;;4.35;;
50906;SDS011;36882;27.680;85.304;2022-09-09T11:45:34;6.20;;;3.75;;
50906;SDS011;36882;27.680;85.304;2022-09-09T11:47:58;6.63;;;3.63;;
50906;SDS011;36882;27.680;85.304;2022-09-09T11:50:35;8.45;;;3.88;;
50906;SDS011;36882;27.680;85.304;2022-09-09T11:53:21;5.78;;;3.05;;
50906;SDS011;36882;27.680;85.304;2022-09-09T11:56:01;5.97;;;3.83;;
50906;SDS011;36882;27.680;85.304;2022-09-09T11:58:37;8.35;;;3.65;;
50906;SDS011;36882;27.680;85.304;2022-09-09T12:01:14;8.82;;;4.13;;
50906;SDS011;36882;27.680;85.304;2022-09-09T12:04:09;6.18;;;4.30;;
50906;SDS011;36882;27.680;85.304;2022-09-09T12:06:50;11.73;;;3.45;;
50906;SDS011;36882;27.680;85.304;2022-09-09T12:12:32;14.20;;;7.47;;
50906;SDS011;36882;27.680;85.304;2022-09-09T12:15:17;12.15;;;7.45;;
50906;SDS011;36882;27.680;85.304;2022-09-09T12:17:50;13.43;;;6.70;;
50906;SDS011;36882;27.680;85.304;2022-09-09T12:20:31;14.60;;;6.85;;
50906;SDS011;36882;27.680;85.304;2022-09-09T12:23:18;11.13;;;7.32;;
50906;SDS011;36882;27.680;85.304;2022-09-09T12:26:05;14.82;;;7.03;;
50906;SDS011;36882;27.680;85.304;2022-09-09T12:31:43;20.65;;;8.68;;
50906;SDS011;36882;27.680;85.304;2022-09-09T12:40:20;17.23;;;9.68;;
50906;SDS011;36882;27.680;85.304;2022-09-09T12:42:52;21.55;;;12.57;;
50906;SDS011;36882;27.680;85.304;2022-09-09T12:45:25;28.63;;;13.57;;
50906;SDS011;36882;27.680;85.304;2022-09-09T12:47:59;19.52;;;11.65;;
50906;SDS011;36882;27.680;85.304;2022-09-09T12:50:44;18.60;;;10.38;;
50906;SDS011;36882;27.680;85.304;2022-09-09T12:53:23;16.92;;;8.73;;
50906;SDS011;36882;27.680;85.304;2022-09-09T12:55:58;13.80;;;7.38;;
50906;SDS011;36882;27.680;85.304;2022-09-09T12:58:37;14.25;;;7.88;;
50906;SDS011;36882;27.680;85.304;2022-09-09T13:01:17;12.35;;;7.15;;
50906;SDS011;36882;27.680;85.304;2022-09-09T13:04:02;13.23;;;7.15;;
50906;SDS011;36882;27.680;85.304;2022-09-09T13:06:48;14.35;;;7.65;;
50906;SDS011;36882;27.680;85.304;2022-09-09T13:09:20;17.20;;;7.72;;
50906;SDS011;36882;27.680;85.304;2022-09-09T13:11:52;12.80;;;7.78;;
50906;SDS011;36882;27.680;85.304;2022-09-09T13:14:30;15.88;;;7.63;;
50906;SDS011;36882;27.680;85.304;2022-09-09T13:17:06;12.70;;;8.07;;
50906;SDS011;36882;27.680;85.304;2022-09-09T13:19:46;19.00;;;8.95;;
50906;SDS011;36882;27.680;85.304;2022-09-09T13:22:30;16.42;;;9.10;;
50906;SDS011;36882;27.680;85.304;2022-09-09T13:25:06;15.32;;;9.25;;
50906;SDS011;36882;27.680;85.304;2022-09-09T13:27:53;14.02;;;9.38;;
50906;SDS011;36882;27.680;85.304;2022-09-09T13:30:34;15.57;;;10.20;;
50906;SDS011;36882;27.680;85.304;2022-09-09T13:35:59;18.08;;;12.50;;
50906;SDS011;36882;27.680;85.304;2022-09-09T13:38:36;17.67;;;13.68;;
50906;SDS011;36882;27.680;85.304;2022-09-09T13:41:10;14.88;;;12.10;;
50906;SDS011;36882;27.680;85.304;2022-09-09T13:43:50;18.92;;;13.00;;
50906;SDS011;36882;27.680;85.304;2022-09-09T13:46:25;16.52;;;12.48;;
50906;SDS011;36882;27.680;85.304;2022-09-09T13:49:20;23.33;;;11.77;;
50906;SDS011;36882;27.680;85.304;2022-09-09T13:52:02;13.82;;;11.30;;
50906;SDS011;36882;27.680;85.304;2022-09-09T13:54:36;16.83;;;12.43;;
50906;SDS011;36882;27.680;85.304;2022-09-09T13:57:34;15.20;;;12.15;;
50906;SDS011;36882;27.680;85.304;2022-09-09T13:59:56;19.42;;;13.02;;
50906;SDS011;36882;27.680;85.304;2022-09-09T14:02:32;23.40;;;13.05;;
50906;SDS011;36882;27.680;85.304;2022-09-09T14:05:03;19.38;;;14.95;;
50906;SDS011;36882;27.680;85.304;2022-09-09T14:07:35;19.98;;;14.40;;
50906;SDS011;36882;27.680;85.304;2022-09-09T14:10:07;19.63;;;12.65;;
50906;SDS011;36882;27.680;85.304;2022-09-09T14:12:38;17.95;;;11.75;;
50906;SDS011;36882;27.680;85.304;2022-09-09T14:15:09;17.33;;;12.10;;
50906;SDS011;36882;27.680;85.304;2022-09-09T14:17:41;15.65;;;11.50;;
50906;SDS011;36882;27.680;85.304;2022-09-09T14:20:11;18.08;;;12.88;;
50906;SDS011;36882;27.680;85.304;2022-09-09T14:22:44;23.23;;;13.30;;
50906;SDS011;36882;27.680;85.304;2022-09-09T14:25:14;22.60;;;14.15;;
50906;SDS011;36882;27.680;85.304;2022-09-09T14:27:44;18.30;;;12.90;;
50906;SDS011;36882;27.680;85.304;2022-09-09T14:30:15;18.38;;;13.20;;
50906;SDS011;36882;27.680;85.304;2022-09-09T14:32:45;14.70;;;12.00;;
50906;SDS011;36882;27.680;85.304;2022-09-09T14:35:16;29.05;;;13.93;;
50906;SDS011;36882;27.680;85.304;2022-09-09T14:37:46;22.10;;;12.75;;
50906;SDS011;36882;27.680;85.304;2022-09-09T14:40:17;18.92;;;13.02;;
50906;SDS011;36882;27.680;85.304;2022-09-09T14:42:48;23.42;;;11.73;;
50906;SDS011;36882;27.680;85.304;2022-09-09T14:45:18;18.65;;;11.93;;
50906;SDS011;36882;27.680;85.304;2022-09-09T14:47:50;21.73;;;13.30;;
50906;SDS011;36882;27.680;85.304;2022-09-09T14:50:20;22.15;;;14.40;;
50906;SDS011;36882;27.680;85.304;2022-09-09T14:52:52;25.60;;;15.05;;
50906;SDS011;36882;27.680;85.304;2022-09-09T14:55:22;22.15;;;14.95;;
50906;SDS011;36882;27.680;85.304;2022-09-09T14:57:52;20.10;;;15.23;;
50906;SDS011;36882;27.680;85.304;2022-09-09T15:00:23;34.03;;;16.33;;
50906;SDS011;36882;27.680;85.304;2022-09-09T15:02:54;26.70;;;15.50;;
50906;SDS011;36882;27.680;85.304;2022-09-09T15:05:25;22.38;;;16.67;;
50906;SDS011;36882;27.680;85.304;2022-09-09T15:07:56;19.48;;;16.98;;
50906;SDS011;36882;27.680;85.304;2022-09-09T15:10:27;28.52;;;15.80;;
50906;SDS011;36882;27.680;85.304;2022-09-09T15:13:00;20.55;;;16.77;;
50906;SDS011;36882;27.680;85.304;2022-09-09T15:15:30;17.80;;;15.40;;
50906;SDS011;36882;27.680;85.304;2022-09-09T15:18:03;19.42;;;14.05;;
50906;SDS011;36882;27.680;85.304;2022-09-09T15:20:33;19.67;;;14.52;;
50906;SDS011;36882;27.680;85.304;2022-09-09T15:23:06;15.70;;;12.73;;
50906;SDS011;36882;27.680;85.304;2022-09-09T15:25:37;14.10;;;11.40;;
50906;SDS011;36882;27.680;85.304;2022-09-09T15:28:08;26.27;;;18.13;;
50906;SDS011;36882;27.680;85.304;2022-09-09T15:30:39;21.45;;;16.23;;
50906;SDS011;36882;27.680;85.304;2022-09-09T15:33:09;19.88;;;16.15;;
50906;SDS011;36882;27.680;85.304;2022-09-09T15:35:40;19.40;;;13.38;;
50906;SDS011;36882;27.680;85.304;2022-09-09T15:38:10;33.78;;;23.90;;
50906;SDS011;36882;27.680;85.304;2022-09-09T15:40:42;27.85;;;19.42;;
50906;SDS011;36882;27.680;85.304;2022-09-09T15:43:12;23.75;;;17.98;;
50906;SDS011;36882;27.680;85.304;2022-09-09T15:45:43;22.45;;;16.50;;
50906;SDS011;36882;27.680;85.304;2022-09-09T15:48:18;19.88;;;15.63;;
50906;SDS011;36882;27.680;85.304;2022-09-09T15:50:52;17.60;;;14.60;;
50906;SDS011;36882;27.680;85.304;2022-09-09T15:53:54;19.27;;;15.15;;
50906;SDS011;36882;27.680;85.304;2022-09-09T15:56:25;20.65;;;14.60;;
50906;SDS011;36882;27.680;85.304;2022-09-09T15:58:57;21.27;;;15.77;;
50906;SDS011;36882;27.680;85.304;2022-09-09T16:01:28;20.20;;;15.20;;
50906;SDS011;36882;27.680;85.304;2022-09-09T16:03:59;17.02;;;12.95;;
50906;SDS011;36882;27.680;85.304;2022-09-09T16:06:30;18.70;;;12.48;;
50906;SDS011;36882;27.680;85.304;2022-09-09T16:09:03;16.58;;;12.98;;
50906;SDS011;36882;27.680;85.304;2022-09-09T16:11:36;15.88;;;14.20;;
50906;SDS011;36882;27.680;85.304;2022-09-09T16:14:07;16.17;;;12.38;;
50906;SDS011;36882;27.680;85.304;2022-09-09T16:16:38;14.10;;;12.35;;
50906;SDS011;36882;27.680;85.304;2022-09-09T16:19:10;13.63;;;11.88;;
50906;SDS011;36882;27.680;85.304;2022-09-09T16:21:43;15.02;;;12.15;;
50906;SDS011;36882;27.680;85.304;2022-09-09T16:24:16;15.43;;;11.52;;
50906;SDS011;36882;27.680;85.304;2022-09-09T16:26:49;14.93;;;11.32;;
50906;SDS011;36882;27.680;85.304;2022-09-09T16:29:21;16.85;;;13.15;;
50906;SDS011;36882;27.680;85.304;2022-09-09T16:31:52;13.90;;;10.95;;
50906;SDS011;36882;27.680;85.304;2022-09-09T16:34:29;14.38;;;11.20;;
50906;SDS011;36882;27.680;85.304;2022-09-09T16:37:02;15.10;;;12.98;;
50906;SDS011;36882;27.680;85.304;2022-09-09T16:39:32;16.60;;;12.30;;
50906;SDS011;36882;27.680;85.304;2022-09-09T16:42:03;14.25;;;11.90;;
50906;SDS011;36882;27.680;85.304;2022-09-09T16:44:34;19.00;;;11.55;;
50906;SDS011;36882;27.680;85.304;2022-09-09T16:47:04;15.57;;;11.95;;